Schenectady, NY

4:54 AM EST on November 28, 2014 (GMT -0500)
Schenectady County | Change Station
CLOSE
Current Station
Airport
Location: Schenectady,
Elevation: 377 ft
Nearby Weather Stations

Elev 377 ft 42.85 °N, 73.93 °W | Updated 6 hours ago

Overcast
Overcast
23 °F
Feels Like 16 °F
N
6
Wind Variable Wind from WNW
Gusts 10 mph

Today
High -- | Low -- °F
--% Chance of Precip.
Yesterday
High -- | Low -- °F
Precip. -- in
7:03 AM 4:23 PM
Waxing Crescent, 38% visible
Pressure 30.05 in
Visibility 7.0 miles
Clouds Scattered Clouds 600 ft
Overcast 1400 ft
Windchill 16 °F
Dew Point 18 °F
Humidity 81%
Rainfall 0.00 in
Snow Depth Not available.
UV 0 out of 12
Pollen .10 out of 12
Air Quality Not available.
Flu Activity Not available.
METAR KSCH 280255Z 00000KT 7SM SCT006 OVC014 M02/M03 A3005

More Conditions Fewer Conditions

Pressure 30.05 in
Visibility 7.0 miles
Clouds Scattered Clouds 600 ft
Overcast 1400 ft
Windchill 16 °F
Dew Point 18 °F
Humidity 81%
Rainfall 0.00 in
Snow Depth Not available.
UV 0 out of 12
Pollen .10 out of 12
Air Quality Not available.
Flu Activity Not available.
METAR KSCH 280255Z 00000KT 7SM SCT006 OVC014 M02/M03 A3005

More Conditions Fewer Conditions

10-Day Weather Forecast

Almanac

Astronomy

Nov. 28, 2014 Rise Set
Actual Time
Civil Twilight
Nautical Twilight
Astronomical Twilight
Moon
Length of Visible Light
Length of Day
Tomorrow will be .
, % of the Moon is Illuminated

Today's Extremes

State Highs State Lows

Community

WunderPhotos

Upload Photos

1,774,190 photos uploaded!

WunderBlogs® & News

Nearby

Air Quality

  Air Quality AQ Index Pollutant
Not available.

Snow Depth

Station Depth Elevation

Earthquake Activity

City Distance Mag. Time & Date
Minimum magnitude displayed is 2.5.

Coastal Water Temperatures

Place Temperature

Nearby Weather Stations